sensor_id;sensor_type;location;lat;lon;timestamp;pressure;altitude;pressure_sealevel;temperature;humidity
22653;BME280;11493;43.344;26.226;2023-03-13T00:01:02;99692.53;;;3.06;86.75
22653;BME280;11493;43.344;26.226;2023-03-13T00:03:35;99697.41;;;3.04;87.25
22653;BME280;11493;43.344;26.226;2023-03-13T00:06:02;99703.16;;;3.08;87.19
22653;BME280;11493;43.344;26.226;2023-03-13T00:08:29;99704.50;;;3.05;86.79
22653;BME280;11493;43.344;26.226;2023-03-13T00:10:56;99698.16;;;2.94;86.80
22653;BME280;11493;43.344;26.226;2023-03-13T00:13:23;99706.06;;;2.96;86.93
22653;BME280;11493;43.344;26.226;2023-03-13T00:15:58;99693.94;;;2.82;87.06
22653;BME280;11493;43.344;26.226;2023-03-13T00:18:25;99702.34;;;2.80;86.64
22653;BME280;11493;43.344;26.226;2023-03-13T00:21:00;99691.38;;;2.70;87.09
22653;BME280;11493;43.344;26.226;2023-03-13T00:23:28;99690.16;;;2.61;86.95
22653;BME280;11493;43.344;26.226;2023-03-13T00:26:00;99697.50;;;2.60;86.90
22653;BME280;11493;43.344;26.226;2023-03-13T00:28:28;99679.94;;;2.46;86.82
22653;BME280;11493;43.344;26.226;2023-03-13T00:31:25;99697.38;;;2.50;86.74
22653;BME280;11493;43.344;26.226;2023-03-13T00:33:55;99706.03;;;2.47;86.86
22653;BME280;11493;43.344;26.226;2023-03-13T00:36:25;99686.56;;;2.34;86.37
22653;BME280;11493;43.344;26.226;2023-03-13T00:38:54;99695.28;;;2.36;86.44
22653;BME280;11493;43.344;26.226;2023-03-13T00:41:23;99701.41;;;2.26;86.93
22653;BME280;11493;43.344;26.226;2023-03-13T00:43:51;99687.78;;;2.21;87.02
22653;BME280;11493;43.344;26.226;2023-03-13T00:46:21;99697.03;;;2.25;86.87
22653;BME280;11493;43.344;26.226;2023-03-13T00:48:49;99691.03;;;2.23;86.89
22653;BME280;11493;43.344;26.226;2023-03-13T00:51:18;99692.41;;;2.20;86.81
22653;BME280;11493;43.344;26.226;2023-03-13T00:53:47;99702.44;;;2.20;87.04
22653;BME280;11493;43.344;26.226;2023-03-13T00:56:16;99695.94;;;2.21;86.93
22653;BME280;11493;43.344;26.226;2023-03-13T00:58:45;99685.75;;;2.11;87.19
22653;BME280;11493;43.344;26.226;2023-03-13T01:01:23;99698.50;;;2.11;87.45
22653;BME280;11493;43.344;26.226;2023-03-13T01:03:58;99683.41;;;1.98;87.70
22653;BME280;11493;43.344;26.226;2023-03-13T01:06:28;99692.94;;;2.01;88.03
22653;BME280;11493;43.344;26.226;2023-03-13T01:08:57;99680.78;;;1.86;88.60
22653;BME280;11493;43.344;26.226;2023-03-13T01:11:27;99708.56;;;1.93;88.49
22653;BME280;11493;43.344;26.226;2023-03-13T01:13:57;99704.78;;;1.94;88.89
22653;BME280;11493;43.344;26.226;2023-03-13T01:16:26;99703.06;;;1.88;88.66
22653;BME280;11493;43.344;26.226;2023-03-13T01:18:57;99709.13;;;1.95;88.32
22653;BME280;11493;43.344;26.226;2023-03-13T01:21:24;99712.84;;;1.89;88.37
22653;BME280;11493;43.344;26.226;2023-03-13T01:23:53;99707.91;;;1.86;88.25
22653;BME280;11493;43.344;26.226;2023-03-13T01:26:21;99701.75;;;1.74;88.26
22653;BME280;11493;43.344;26.226;2023-03-13T01:28:48;99718.28;;;1.73;88.57
22653;BME280;11493;43.344;26.226;2023-03-13T01:33:54;99709.81;;;1.69;88.52
22653;BME280;11493;43.344;26.226;2023-03-13T01:36:21;99723.38;;;1.69;88.59
22653;BME280;11493;43.344;26.226;2023-03-13T01:38:50;99720.50;;;1.59;88.37
22653;BME280;11493;43.344;26.226;2023-03-13T01:41:19;99720.41;;;1.54;88.59
22653;BME280;11493;43.344;26.226;2023-03-13T01:43:47;99732.09;;;1.54;88.70
22653;BME280;11493;43.344;26.226;2023-03-13T01:46:22;99731.84;;;1.56;88.37
22653;BME280;11493;43.344;26.226;2023-03-13T01:52:16;99738.19;;;1.45;89.01
22653;BME280;11493;43.344;26.226;2023-03-13T01:54:55;99744.09;;;1.42;89.06
22653;BME280;11493;43.344;26.226;2023-03-13T01:57:36;99764.00;;;1.47;88.82
22653;BME280;11493;43.344;26.226;2023-03-13T02:00:14;99761.59;;;1.51;89.08
22653;BME280;11493;43.344;26.226;2023-03-13T02:02:46;99757.16;;;1.45;88.70
22653;BME280;11493;43.344;26.226;2023-03-13T02:05:15;99750.34;;;1.42;88.84
22653;BME280;11493;43.344;26.226;2023-03-13T02:07:48;99758.97;;;1.39;88.98
22653;BME280;11493;43.344;26.226;2023-03-13T02:10:17;99761.94;;;1.38;89.24
22653;BME280;11493;43.344;26.226;2023-03-13T02:12:44;99772.28;;;1.41;89.38
22653;BME280;11493;43.344;26.226;2023-03-13T02:15:17;99767.94;;;1.40;88.86
22653;BME280;11493;43.344;26.226;2023-03-13T02:17:46;99778.78;;;1.40;89.20
22653;BME280;11493;43.344;26.226;2023-03-13T02:20:17;99759.50;;;1.24;89.46
22653;BME280;11493;43.344;26.226;2023-03-13T02:28:31;99783.19;;;1.29;89.93
22653;BME280;11493;43.344;26.226;2023-03-13T02:31:02;99768.38;;;1.20;90.00
22653;BME280;11493;43.344;26.226;2023-03-13T02:33:32;99779.75;;;1.34;89.87
22653;BME280;11493;43.344;26.226;2023-03-13T02:36:02;99787.38;;;1.37;89.93
22653;BME280;11493;43.344;26.226;2023-03-13T02:38:32;99787.16;;;1.38;89.88
22653;BME280;11493;43.344;26.226;2023-03-13T02:41:01;99788.78;;;1.39;90.01
22653;BME280;11493;43.344;26.226;2023-03-13T02:43:35;99793.41;;;1.39;90.15
22653;BME280;11493;43.344;26.226;2023-03-13T02:46:07;99795.53;;;1.37;89.89
22653;BME280;11493;43.344;26.226;2023-03-13T02:48:41;99775.63;;;1.31;89.84
22653;BME280;11493;43.344;26.226;2023-03-13T02:51:16;99725.59;;;0.93;89.50
22653;BME280;11493;43.344;26.226;2023-03-13T02:53:45;99790.50;;;1.28;89.55
22653;BME280;11493;43.344;26.226;2023-03-13T02:56:16;99791.84;;;1.14;90.13
22653;BME280;11493;43.344;26.226;2023-03-13T02:58:46;99801.63;;;1.15;90.54
22653;BME280;11493;43.344;26.226;2023-03-13T03:01:20;99805.16;;;1.16;90.74
22653;BME280;11493;43.344;26.226;2023-03-13T03:03:47;99811.25;;;1.23;90.23
22653;BME280;11493;43.344;26.226;2023-03-13T03:06:14;99796.41;;;1.25;90.38
22653;BME280;11493;43.344;26.226;2023-03-13T03:08:42;99807.81;;;1.27;89.38
22653;BME280;11493;43.344;26.226;2023-03-13T03:11:11;99823.75;;;1.24;89.66
22653;BME280;11493;43.344;26.226;2023-03-13T03:13:39;99811.31;;;1.11;89.83
22653;BME280;11493;43.344;26.226;2023-03-13T03:16:07;99818.84;;;1.09;90.05
22653;BME280;11493;43.344;26.226;2023-03-13T03:18:37;99826.28;;;1.02;90.30
22653;BME280;11493;43.344;26.226;2023-03-13T03:21:04;99822.56;;;0.91;90.85
22653;BME280;11493;43.344;26.226;2023-03-13T03:23:36;99835.28;;;0.91;90.90
22653;BME280;11493;43.344;26.226;2023-03-13T03:26:04;99844.94;;;0.87;91.19
22653;BME280;11493;43.344;26.226;2023-03-13T03:28:32;99851.41;;;0.86;91.07
22653;BME280;11493;43.344;26.226;2023-03-13T03:31:10;99836.13;;;0.80;91.13
22653;BME280;11493;43.344;26.226;2023-03-13T03:33:38;99843.97;;;0.93;90.68
22653;BME280;11493;43.344;26.226;2023-03-13T03:36:11;99856.84;;;0.86;90.87
22653;BME280;11493;43.344;26.226;2023-03-13T03:38:39;99865.44;;;0.83;91.15
22653;BME280;11493;43.344;26.226;2023-03-13T03:41:09;99857.78;;;0.80;91.31
22653;BME280;11493;43.344;26.226;2023-03-13T03:43:36;99858.72;;;0.85;90.70
22653;BME280;11493;43.344;26.226;2023-03-13T03:46:06;99873.31;;;0.84;90.72
22653;BME280;11493;43.344;26.226;2023-03-13T03:48:34;99870.16;;;0.76;91.13
22653;BME280;11493;43.344;26.226;2023-03-13T03:51:04;99876.31;;;0.71;91.58
22653;BME280;11493;43.344;26.226;2023-03-13T03:53:34;99885.25;;;0.72;91.63
22653;BME280;11493;43.344;26.226;2023-03-13T03:56:01;99886.56;;;0.69;91.99
22653;BME280;11493;43.344;26.226;2023-03-13T03:58:28;99888.34;;;0.63;92.16
22653;BME280;11493;43.344;26.226;2023-03-13T04:01:11;99901.28;;;0.73;92.14
22653;BME280;11493;43.344;26.226;2023-03-13T04:03:39;99891.28;;;0.62;92.10
22653;BME280;11493;43.344;26.226;2023-03-13T04:06:06;99902.09;;;0.62;92.25
22653;BME280;11493;43.344;26.226;2023-03-13T04:08:33;99896.34;;;0.58;92.08
22653;BME280;11493;43.344;26.226;2023-03-13T04:11:00;99897.28;;;0.52;91.81
22653;BME280;11493;43.344;26.226;2023-03-13T04:13:32;99913.06;;;0.55;92.15
22653;BME280;11493;43.344;26.226;2023-03-13T04:15:59;99903.88;;;0.56;91.90
22653;BME280;11493;43.344;26.226;2023-03-13T04:18:26;99907.88;;;0.65;91.56
22653;BME280;11493;43.344;26.226;2023-03-13T04:21:03;99925.78;;;0.67;90.35
22653;BME280;11493;43.344;26.226;2023-03-13T04:23:40;99910.22;;;0.50;90.69
22653;BME280;11493;43.344;26.226;2023-03-13T04:26:07;99919.88;;;0.46;91.37
22653;BME280;11493;43.344;26.226;2023-03-13T04:28:35;99934.94;;;0.42;91.48
22653;BME280;11493;43.344;26.226;2023-03-13T04:31:05;99933.28;;;0.41;91.43
22653;BME280;11493;43.344;26.226;2023-03-13T04:33:58;99924.69;;;0.44;91.75
22653;BME280;11493;43.344;26.226;2023-03-13T04:36:37;99915.63;;;0.39;91.90
22653;BME280;11493;43.344;26.226;2023-03-13T04:39:24;99925.16;;;0.41;92.17
22653;BME280;11493;43.344;26.226;2023-03-13T04:42:10;99932.34;;;0.47;92.17
22653;BME280;11493;43.344;26.226;2023-03-13T04:44:54;99936.59;;;0.43;92.16
22653;BME280;11493;43.344;26.226;2023-03-13T04:47:48;99918.31;;;0.27;92.43
22653;BME280;11493;43.344;26.226;2023-03-13T04:50:30;99954.47;;;0.44;92.50
22653;BME280;11493;43.344;26.226;2023-03-13T04:53:17;99948.38;;;0.49;92.93
22653;BME280;11493;43.344;26.226;2023-03-13T04:56:25;99944.38;;;0.51;92.27
22653;BME280;11493;43.344;26.226;2023-03-13T04:59:17;99955.44;;;0.61;91.88
22653;BME280;11493;43.344;26.226;2023-03-13T05:02:02;99960.41;;;0.64;91.97
22653;BME280;11493;43.344;26.226;2023-03-13T05:04:48;99951.44;;;0.64;92.06
22653;BME280;11493;43.344;26.226;2023-03-13T05:07:47;99964.88;;;0.71;92.07
22653;BME280;11493;43.344;26.226;2023-03-13T05:10:33;99960.59;;;0.75;91.81
22653;BME280;11493;43.344;26.226;2023-03-13T05:13:23;99970.97;;;0.89;91.33
22653;BME280;11493;43.344;26.226;2023-03-13T05:15:53;99945.66;;;0.84;91.09
22653;BME280;11493;43.344;26.226;2023-03-13T05:18:53;99977.22;;;1.13;91.04
22653;BME280;11493;43.344;26.226;2023-03-13T05:21:38;99980.63;;;1.20;90.25
22653;BME280;11493;43.344;26.226;2023-03-13T05:24:40;99973.31;;;1.21;89.71
22653;BME280;11493;43.344;26.226;2023-03-13T05:27:25;99980.38;;;1.22;89.83
22653;BME280;11493;43.344;26.226;2023-03-13T05:30:05;99982.97;;;1.28;90.11
22653;BME280;11493;43.344;26.226;2023-03-13T05:32:40;99964.09;;;1.34;90.22
22653;BME280;11493;43.344;26.226;2023-03-13T05:35:18;99973.50;;;1.43;90.22
22653;BME280;11493;43.344;26.226;2023-03-13T05:38:03;99985.81;;;1.62;89.71
22653;BME280;11493;43.344;26.226;2023-03-13T05:40:51;99983.41;;;1.77;89.12
22653;BME280;11493;43.344;26.226;2023-03-13T05:43:36;99981.94;;;1.98;88.10
22653;BME280;11493;43.344;26.226;2023-03-13T05:46:26;99993.50;;;2.22;87.67
22653;BME280;11493;43.344;26.226;2023-03-13T05:49:04;99989.28;;;2.31;87.36
22653;BME280;11493;43.344;26.226;2023-03-13T05:51:47;99978.03;;;2.39;86.70
22653;BME280;11493;43.344;26.226;2023-03-13T05:54:40;99996.31;;;2.60;86.12
22653;BME280;11493;43.344;26.226;2023-03-13T05:57:13;100003.91;;;2.75;85.12
22653;BME280;11493;43.344;26.226;2023-03-13T06:00:02;100007.69;;;2.91;85.03
22653;BME280;11493;43.344;26.226;2023-03-13T06:02:43;100005.69;;;3.03;84.27
22653;BME280;11493;43.344;26.226;2023-03-13T06:05:15;99999.25;;;3.09;83.79
22653;BME280;11493;43.344;26.226;2023-03-13T06:07:43;99998.91;;;3.22;83.67
22653;BME280;11493;43.344;26.226;2023-03-13T06:10:10;99994.19;;;3.35;83.55
22653;BME280;11493;43.344;26.226;2023-03-13T06:12:38;100002.31;;;3.51;82.62
22653;BME280;11493;43.344;26.226;2023-03-13T06:15:09;100022.38;;;3.67;82.40
22653;BME280;11493;43.344;26.226;2023-03-13T06:17:53;100017.97;;;3.88;80.94
22653;BME280;11493;43.344;26.226;2023-03-13T06:20:20;100020.06;;;4.03;82.50
22653;BME280;11493;43.344;26.226;2023-03-13T06:22:48;100023.53;;;4.20;83.08
22653;BME280;11493;43.344;26.226;2023-03-13T06:25:15;100035.78;;;4.44;81.71
22653;BME280;11493;43.344;26.226;2023-03-13T06:27:42;100017.53;;;4.45;79.56
22653;BME280;11493;43.344;26.226;2023-03-13T06:30:09;100031.88;;;4.67;78.47
22653;BME280;11493;43.344;26.226;2023-03-13T06:32:36;100025.69;;;4.77;80.11
22653;BME280;11493;43.344;26.226;2023-03-13T06:35:04;100025.91;;;5.02;79.27
22653;BME280;11493;43.344;26.226;2023-03-13T06:37:31;100024.41;;;5.26;79.42
22653;BME280;11493;43.344;26.226;2023-03-13T06:39:59;100026.09;;;5.33;77.80
22653;BME280;11493;43.344;26.226;2023-03-13T06:42:26;100022.38;;;5.49;76.91
22653;BME280;11493;43.344;26.226;2023-03-13T06:44:53;100021.91;;;5.62;76.92
22653;BME280;11493;43.344;26.226;2023-03-13T06:47:20;100023.94;;;5.87;76.34
22653;BME280;11493;43.344;26.226;2023-03-13T06:49:47;100014.72;;;5.93;73.41
22653;BME280;11493;43.344;26.226;2023-03-13T06:52:14;100021.63;;;6.26;73.57
22653;BME280;11493;43.344;26.226;2023-03-13T06:54:41;100005.22;;;6.26;72.36
22653;BME280;11493;43.344;26.226;2023-03-13T06:57:08;100012.38;;;6.47;71.43
22653;BME280;11493;43.344;26.226;2023-03-13T06:59:35;100014.59;;;6.61;71.99
22653;BME280;11493;43.344;26.226;2023-03-13T07:02:03;100015.66;;;6.70;70.15
22653;BME280;11493;43.344;26.226;2023-03-13T07:04:30;100010.88;;;7.62;71.43
22653;BME280;11493;43.344;26.226;2023-03-13T07:06:57;100017.44;;;7.66;69.36
22653;BME280;11493;43.344;26.226;2023-03-13T07:09:24;100014.47;;;7.47;69.32
22653;BME280;11493;43.344;26.226;2023-03-13T07:11:53;100006.25;;;7.47;69.22
22653;BME280;11493;43.344;26.226;2023-03-13T07:14:20;100013.91;;;7.55;69.29
22653;BME280;11493;43.344;26.226;2023-03-13T07:16:48;100020.44;;;7.74;69.64
22653;BME280;11493;43.344;26.226;2023-03-13T07:19:15;100009.72;;;7.83;68.31
22653;BME280;11493;43.344;26.226;2023-03-13T07:21:43;100007.53;;;7.80;68.28
22653;BME280;11493;43.344;26.226;2023-03-13T07:24:10;99999.56;;;7.88;68.04
22653;BME280;11493;43.344;26.226;2023-03-13T07:26:37;100005.25;;;8.02;67.91
22653;BME280;11493;43.344;26.226;2023-03-13T07:29:04;100007.59;;;8.24;67.21
22653;BME280;11493;43.344;26.226;2023-03-13T07:31:31;100008.38;;;8.30;66.89
22653;BME280;11493;43.344;26.226;2023-03-13T07:34:00;100001.25;;;8.34;66.02
22653;BME280;11493;43.344;26.226;2023-03-13T07:36:27;100001.75;;;8.41;66.02
22653;BME280;11493;43.344;26.226;2023-03-13T07:38:55;99988.22;;;8.54;64.35
22653;BME280;11493;43.344;26.226;2023-03-13T07:41:22;99995.47;;;8.79;64.00
22653;BME280;11493;43.344;26.226;2023-03-13T07:43:49;99984.19;;;8.81;63.88
22653;BME280;11493;43.344;26.226;2023-03-13T07:46:18;99989.88;;;8.89;63.84
22653;BME280;11493;43.344;26.226;2023-03-13T07:48:46;99999.84;;;9.09;63.92
22653;BME280;11493;43.344;26.226;2023-03-13T07:51:18;99995.38;;;8.89;61.14
22653;BME280;11493;43.344;26.226;2023-03-13T07:53:55;99985.34;;;9.04;65.77
22653;BME280;11493;43.344;26.226;2023-03-13T07:56:23;99997.44;;;9.32;65.46
22653;BME280;11493;43.344;26.226;2023-03-13T07:58:50;99975.69;;;9.35;64.42
22653;BME280;11493;43.344;26.226;2023-03-13T08:01:18;99984.31;;;9.52;63.35
22653;BME280;11493;43.344;26.226;2023-03-13T08:03:46;99962.13;;;9.68;63.01
22653;BME280;11493;43.344;26.226;2023-03-13T08:06:23;99968.97;;;9.70;63.19
22653;BME280;11493;43.344;26.226;2023-03-13T08:08:51;99980.16;;;9.98;63.60
22653;BME280;11493;43.344;26.226;2023-03-13T08:11:20;99975.06;;;10.10;59.35
22653;BME280;11493;43.344;26.226;2023-03-13T08:13:48;99979.03;;;10.41;61.65
22653;BME280;11493;43.344;26.226;2023-03-13T08:16:20;99972.84;;;10.49;59.48
22653;BME280;11493;43.344;26.226;2023-03-13T08:18:49;99985.22;;;10.33;58.19
22653;BME280;11493;43.344;26.226;2023-03-13T08:21:20;99981.28;;;10.20;59.68
22653;BME280;11493;43.344;26.226;2023-03-13T08:23:48;99990.91;;;10.18;58.63
22653;BME280;11493;43.344;26.226;2023-03-13T08:26:19;99982.72;;;10.13;59.04
22653;BME280;11493;43.344;26.226;2023-03-13T08:28:50;99971.88;;;10.40;60.65
22653;BME280;11493;43.344;26.226;2023-03-13T08:31:21;99980.06;;;10.45;57.73
22653;BME280;11493;43.344;26.226;2023-03-13T08:33:49;99961.91;;;10.44;59.09
22653;BME280;11493;43.344;26.226;2023-03-13T08:36:18;99969.06;;;10.45;58.34
22653;BME280;11493;43.344;26.226;2023-03-13T08:38:46;99965.88;;;10.38;57.44
22653;BME280;11493;43.344;26.226;2023-03-13T08:41:19;99968.91;;;10.56;56.89
22653;BME280;11493;43.344;26.226;2023-03-13T08:43:46;99973.22;;;10.62;58.21
22653;BME280;11493;43.344;26.226;2023-03-13T08:46:14;99986.88;;;10.67;57.68
22653;BME280;11493;43.344;26.226;2023-03-13T08:48:48;99982.41;;;10.71;56.96
22653;BME280;11493;43.344;26.226;2023-03-13T08:51:17;99984.31;;;10.89;54.25
22653;BME280;11493;43.344;26.226;2023-03-13T08:53:45;99982.97;;;11.19;59.05
22653;BME280;11493;43.344;26.226;2023-03-13T08:56:14;99975.88;;;11.59;51.82
22653;BME280;11493;43.344;26.226;2023-03-13T08:58:42;99979.22;;;11.42;54.20
22653;BME280;11493;43.344;26.226;2023-03-13T09:01:13;99977.31;;;11.70;53.99
22653;BME280;11493;43.344;26.226;2023-03-13T09:03:41;99986.00;;;11.91;50.84
22653;BME280;11493;43.344;26.226;2023-03-13T09:06:09;99976.53;;;11.83;48.64
22653;BME280;11493;43.344;26.226;2023-03-13T09:08:37;99974.97;;;11.64;48.43
22653;BME280;11493;43.344;26.226;2023-03-13T09:11:14;99963.34;;;11.80;49.79
22653;BME280;11493;43.344;26.226;2023-03-13T09:13:46;99941.81;;;11.82;50.19
22653;BME280;11493;43.344;26.226;2023-03-13T09:16:16;99942.38;;;11.93;47.47
22653;BME280;11493;43.344;26.226;2023-03-13T09:18:44;99940.31;;;11.99;43.78
22653;BME280;11493;43.344;26.226;2023-03-13T09:21:14;99938.88;;;12.01;42.98
22653;BME280;11493;43.344;26.226;2023-03-13T09:23:41;99938.06;;;12.01;44.22
22653;BME280;11493;43.344;26.226;2023-03-13T09:26:08;99946.50;;;11.82;38.91
22653;BME280;11493;43.344;26.226;2023-03-13T09:28:36;99938.13;;;11.87;35.99
22653;BME280;11493;43.344;26.226;2023-03-13T09:31:16;99922.28;;;11.65;43.33
22653;BME280;11493;43.344;26.226;2023-03-13T09:33:44;99943.13;;;11.85;40.74
22653;BME280;11493;43.344;26.226;2023-03-13T09:36:12;99933.41;;;11.74;42.83
22653;BME280;11493;43.344;26.226;2023-03-13T09:38:39;99920.66;;;11.78;41.99
22653;BME280;11493;43.344;26.226;2023-03-13T09:41:42;99943.91;;;11.72;40.16
22653;BME280;11493;43.344;26.226;2023-03-13T09:44:24;99916.66;;;11.43;42.18
22653;BME280;11493;43.344;26.226;2023-03-13T09:47:04;99939.72;;;11.74;41.53
22653;BME280;11493;43.344;26.226;2023-03-13T09:49:38;99941.88;;;11.91;43.52
22653;BME280;11493;43.344;26.226;2023-03-13T09:52:15;99930.59;;;12.15;41.79
22653;BME280;11493;43.344;26.226;2023-03-13T09:54:48;99933.75;;;12.08;42.25
22653;BME280;11493;43.344;26.226;2023-03-13T10:00:17;99922.69;;;12.22;44.58
22653;BME280;11493;43.344;26.226;2023-03-13T10:02:54;99914.53;;;12.17;40.53
22653;BME280;11493;43.344;26.226;2023-03-13T10:05:24;99923.63;;;12.17;38.58
22653;BME280;11493;43.344;26.226;2023-03-13T10:08:15;99920.06;;;12.17;40.71
22653;BME280;11493;43.344;26.226;2023-03-13T10:10:48;99929.34;;;12.21;40.54
22653;BME280;11493;43.344;26.226;2023-03-13T10:13:30;99896.31;;;11.94;40.09
22653;BME280;11493;43.344;26.226;2023-03-13T10:16:12;99914.16;;;12.10;41.96
22653;BME280;11493;43.344;26.226;2023-03-13T10:18:47;99906.41;;;11.98;40.14
22653;BME280;11493;43.344;26.226;2023-03-13T10:21:20;99898.91;;;12.12;42.23
22653;BME280;11493;43.344;26.226;2023-03-13T10:24:18;99915.56;;;12.21;40.39
22653;BME280;11493;43.344;26.226;2023-03-13T10:26:49;99893.88;;;12.28;39.85
22653;BME280;11493;43.344;26.226;2023-03-13T10:29:27;99891.84;;;12.20;40.48
22653;BME280;11493;43.344;26.226;2023-03-13T10:32:04;99903.88;;;12.24;39.40
22653;BME280;11493;43.344;26.226;2023-03-13T10:37:27;99894.22;;;12.13;38.12
22653;BME280;11493;43.344;26.226;2023-03-13T10:40:20;99894.09;;;12.18;39.53
22653;BME280;11493;43.344;26.226;2023-03-13T10:42:52;99882.69;;;12.33;40.14
22653;BME280;11493;43.344;26.226;2023-03-13T10:45:21;99875.75;;;12.36;39.34
22653;BME280;11493;43.344;26.226;2023-03-13T10:47:55;99875.69;;;12.49;39.79
22653;BME280;11493;43.344;26.226;2023-03-13T10:50:25;99872.28;;;12.53;42.43
22653;BME280;11493;43.344;26.226;2023-03-13T10:52:53;99862.28;;;12.65;39.09
22653;BME280;11493;43.344;26.226;2023-03-13T10:55:24;99868.00;;;12.69;38.02
22653;BME280;11493;43.344;26.226;2023-03-13T10:57:58;99862.06;;;12.53;39.72
22653;BME280;11493;43.344;26.226;2023-03-13T11:00:38;99847.22;;;12.40;38.84
22653;BME280;11493;43.344;26.226;2023-03-13T11:03:18;99851.22;;;12.57;40.37
22653;BME280;11493;43.344;26.226;2023-03-13T11:05:59;99851.97;;;12.79;42.09
22653;BME280;11493;43.344;26.226;2023-03-13T11:08:33;99845.50;;;12.84;39.81
22653;BME280;11493;43.344;26.226;2023-03-13T11:11:03;99845.00;;;13.13;44.72
22653;BME280;11493;43.344;26.226;2023-03-13T11:13:40;99839.34;;;13.18;39.62
22653;BME280;11493;43.344;26.226;2023-03-13T11:16:44;99834.19;;;12.94;40.91
22653;BME280;11493;43.344;26.226;2023-03-13T11:26:59;99809.25;;;12.77;40.66
22653;BME280;11493;43.344;26.226;2023-03-13T11:32:21;99799.63;;;13.05;40.00
22653;BME280;11493;43.344;26.226;2023-03-13T11:34:59;99793.88;;;12.93;40.25
22653;BME280;11493;43.344;26.226;2023-03-13T11:37:30;99780.34;;;12.83;39.22
22653;BME280;11493;43.344;26.226;2023-03-13T11:40:17;99798.81;;;13.05;39.11
22653;BME280;11493;43.344;26.226;2023-03-13T11:43:12;99762.03;;;12.96;38.33
22653;BME280;11493;43.344;26.226;2023-03-13T12:02:03;99779.13;;;13.06;38.30
22653;BME280;11493;43.344;26.226;2023-03-13T12:04:41;99782.16;;;13.27;38.93
22653;BME280;11493;43.344;26.226;2023-03-13T12:08:04;99774.69;;;13.45;37.67
22653;BME280;11493;43.344;26.226;2023-03-13T12:10:20;99771.28;;;13.39;37.03
22653;BME280;11493;43.344;26.226;2023-03-13T12:13:00;99766.53;;;13.23;37.08
22653;BME280;11493;43.344;26.226;2023-03-13T12:15:43;99771.53;;;13.12;37.23
22653;BME280;11493;43.344;26.226;2023-03-13T12:21:06;99771.84;;;13.10;36.48
22653;BME280;11493;43.344;26.226;2023-03-13T12:23:50;99744.38;;;13.05;37.61
22653;BME280;11493;43.344;26.226;2023-03-13T12:26:49;99756.81;;;13.34;37.94
22653;BME280;11493;43.344;26.226;2023-03-13T12:35:23;99763.81;;;13.74;37.50
22653;BME280;11493;43.344;26.226;2023-03-13T12:43:17;99762.34;;;13.42;36.17
22653;BME280;11493;43.344;26.226;2023-03-13T12:59:37;99753.81;;;13.13;34.57
22653;BME280;11493;43.344;26.226;2023-03-13T13:02:24;99744.22;;;13.10;35.02
22653;BME280;11493;43.344;26.226;2023-03-13T13:04:53;99754.84;;;13.26;36.95
22653;BME280;11493;43.344;26.226;2023-03-13T13:12:39;99746.72;;;13.46;33.31
22653;BME280;11493;43.344;26.226;2023-03-13T13:15:27;99746.88;;;13.50;36.84
22653;BME280;11493;43.344;26.226;2023-03-13T13:18:04;99746.38;;;13.39;35.48
22653;BME280;11493;43.344;26.226;2023-03-13T13:20:47;99744.63;;;13.52;33.15
22653;BME280;11493;43.344;26.226;2023-03-13T13:23:25;99743.66;;;13.65;33.50
22653;BME280;11493;43.344;26.226;2023-03-13T13:25:55;99747.88;;;13.54;33.35
22653;BME280;11493;43.344;26.226;2023-03-13T13:28:24;99745.75;;;13.60;33.11
22653;BME280;11493;43.344;26.226;2023-03-13T13:30:55;99740.56;;;13.58;34.08
22653;BME280;11493;43.344;26.226;2023-03-13T13:38:40;99724.28;;;13.65;35.56
22653;BME280;11493;43.344;26.226;2023-03-13T13:51:37;99715.19;;;13.73;32.89
22653;BME280;11493;43.344;26.226;2023-03-13T13:54:51;99721.22;;;13.67;32.94
22653;BME280;11493;43.344;26.226;2023-03-13T13:57:25;99705.09;;;13.77;33.46
22653;BME280;11493;43.344;26.226;2023-03-13T14:02:36;99716.81;;;13.66;33.39
22653;BME280;11493;43.344;26.226;2023-03-13T14:10:50;99713.22;;;13.74;31.71
22653;BME280;11493;43.344;26.226;2023-03-13T14:13:21;99717.47;;;13.63;32.89
22653;BME280;11493;43.344;26.226;2023-03-13T14:15:52;99699.41;;;13.48;31.39
22653;BME280;11493;43.344;26.226;2023-03-13T14:18:26;99709.66;;;13.47;32.33
22653;BME280;11493;43.344;26.226;2023-03-13T14:23:37;99713.09;;;13.36;32.46
22653;BME280;11493;43.344;26.226;2023-03-13T14:28:58;99705.25;;;13.38;33.48
22653;BME280;11493;43.344;26.226;2023-03-13T14:31:26;99711.59;;;13.38;33.56
22653;BME280;11493;43.344;26.226;2023-03-13T14:33:55;99707.22;;;13.46;32.42
22653;BME280;11493;43.344;26.226;2023-03-13T14:36:23;99708.66;;;13.43;32.01
22653;BME280;11493;43.344;26.226;2023-03-13T14:38:58;99706.41;;;13.45;31.56
22653;BME280;11493;43.344;26.226;2023-03-13T14:41:32;99691.94;;;13.23;31.32
22653;BME280;11493;43.344;26.226;2023-03-13T14:44:13;99708.34;;;13.19;31.22
22653;BME280;11493;43.344;26.226;2023-03-13T14:46:43;99712.09;;;13.23;31.98
22653;BME280;11493;43.344;26.226;2023-03-13T14:49:20;99714.69;;;13.20;32.39
22653;BME280;11493;43.344;26.226;2023-03-13T14:54:49;99711.59;;;13.21;35.19
22653;BME280;11493;43.344;26.226;2023-03-13T14:57:19;99709.81;;;13.17;32.49
22653;BME280;11493;43.344;26.226;2023-03-13T14:59:50;99711.28;;;13.23;34.36
22653;BME280;11493;43.344;26.226;2023-03-13T15:04:49;99708.69;;;13.35;32.50
22653;BME280;11493;43.344;26.226;2023-03-13T15:07:17;99706.91;;;13.30;32.71
22653;BME280;11493;43.344;26.226;2023-03-13T15:09:45;99705.75;;;13.31;32.72
22653;BME280;11493;43.344;26.226;2023-03-13T15:12:15;99701.63;;;13.11;31.74
22653;BME280;11493;43.344;26.226;2023-03-13T15:14:44;99675.91;;;12.85;31.01
22653;BME280;11493;43.344;26.226;2023-03-13T15:17:26;99688.72;;;12.81;31.05
22653;BME280;11493;43.344;26.226;2023-03-13T15:19:55;99692.59;;;12.71;30.89